sensor_id;sensor_type;location;lat;lon;timestamp;temperature;humidity
21031;DHT22;61072;47.808;7.636;2022-10-22T03:41:00;14.40;99.90
21031;DHT22;61072;47.808;7.636;2022-10-22T03:43:27;14.40;99.90
21031;DHT22;61072;47.808;7.636;2022-10-22T03:45:53;14.40;99.90
21031;DHT22;61072;47.808;7.636;2022-10-22T03:48:20;14.30;99.90
21031;DHT22;61072;47.808;7.636;2022-10-22T03:50:47;14.30;99.90
21031;DHT22;61072;47.808;7.636;2022-10-22T03:53:13;14.30;99.90
21031;DHT22;61072;47.808;7.636;2022-10-22T03:55:40;14.30;99.90
21031;DHT22;61072;47.808;7.636;2022-10-22T03:58:07;14.20;99.90
21031;DHT22;61072;47.808;7.636;2022-10-22T04:00:34;14.20;99.90
21031;DHT22;61072;47.808;7.636;2022-10-22T04:03:01;14.20;99.90
21031;DHT22;61072;47.808;7.636;2022-10-22T04:05:27;14.20;99.90
21031;DHT22;61072;47.808;7.636;2022-10-22T04:07:54;14.10;99.90
21031;DHT22;61072;47.808;7.636;2022-10-22T04:10:21;14.10;99.90
21031;DHT22;61072;47.808;7.636;2022-10-22T04:12:47;14.20;99.90
21031;DHT22;61072;47.808;7.636;2022-10-22T04:15:14;14.10;99.90
21031;DHT22;61072;47.808;7.636;2022-10-22T04:17:41;14.10;99.90
21031;DHT22;61072;47.808;7.636;2022-10-22T04:20:09;14.10;99.90
21031;DHT22;61072;47.808;7.636;2022-10-22T04:22:36;14.10;99.90
21031;DHT22;61072;47.808;7.636;2022-10-22T04:25:04;14.10;99.90
21031;DHT22;61072;47.808;7.636;2022-10-22T04:27:32;14.10;99.90
21031;DHT22;61072;47.808;7.636;2022-10-22T04:29:59;14.10;99.90
21031;DHT22;61072;47.808;7.636;2022-10-22T04:32:26;14.10;99.90
21031;DHT22;61072;47.808;7.636;2022-10-22T04:34:53;14.10;99.90
21031;DHT22;61072;47.808;7.636;2022-10-22T04:37:20;14.10;99.90
21031;DHT22;61072;47.808;7.636;2022-10-22T04:39:47;14.10;99.90
21031;DHT22;61072;47.808;7.636;2022-10-22T04:42:13;14.10;99.90
21031;DHT22;61072;47.808;7.636;2022-10-22T04:44:40;14.10;99.90
21031;DHT22;61072;47.808;7.636;2022-10-22T04:47:07;14.10;99.90
21031;DHT22;61072;47.808;7.636;2022-10-22T04:49:33;14.10;99.90
21031;DHT22;61072;47.808;7.636;2022-10-22T04:52:00;14.10;99.90
21031;DHT22;61072;47.808;7.636;2022-10-22T04:54:27;14.10;99.90
21031;DHT22;61072;47.808;7.636;2022-10-22T04:56:58;14.10;99.90
21031;DHT22;61072;47.808;7.636;2022-10-22T04:59:25;14.10;99.90
21031;DHT22;61072;47.808;7.636;2022-10-22T05:01:52;14.10;99.90
21031;DHT22;61072;47.808;7.636;2022-10-22T05:04:18;14.10;99.90
21031;DHT22;61072;47.808;7.636;2022-10-22T05:06:45;14.10;99.90
21031;DHT22;61072;47.808;7.636;2022-10-22T05:09:14;14.10;99.90
21031;DHT22;61072;47.808;7.636;2022-10-22T05:11:43;14.00;99.90
21031;DHT22;61072;47.808;7.636;2022-10-22T05:14:12;14.10;99.90
21031;DHT22;61072;47.808;7.636;2022-10-22T05:16:38;14.10;99.90
21031;DHT22;61072;47.808;7.636;2022-10-22T05:19:06;14.00;99.90
21031;DHT22;61072;47.808;7.636;2022-10-22T05:21:33;14.00;99.90
21031;DHT22;61072;47.808;7.636;2022-10-22T05:24:00;14.00;99.90
21031;DHT22;61072;47.808;7.636;2022-10-22T05:26:27;14.00;99.90
21031;DHT22;61072;47.808;7.636;2022-10-22T05:28:54;14.00;99.90
21031;DHT22;61072;47.808;7.636;2022-10-22T05:31:21;14.00;99.90
21031;DHT22;61072;47.808;7.636;2022-10-22T05:33:48;14.00;99.90
21031;DHT22;61072;47.808;7.636;2022-10-22T05:36:18;14.00;99.90
21031;DHT22;61072;47.808;7.636;2022-10-22T05:38:45;14.00;99.90
21031;DHT22;61072;47.808;7.636;2022-10-22T05:41:21;14.00;99.90
21031;DHT22;61072;47.808;7.636;2022-10-22T05:43:48;13.90;99.90
21031;DHT22;61072;47.808;7.636;2022-10-22T05:46:18;13.90;99.90
21031;DHT22;61072;47.808;7.636;2022-10-22T05:48:56;13.90;99.90
21031;DHT22;61072;47.808;7.636;2022-10-22T05:51:26;13.90;99.90
21031;DHT22;61072;47.808;7.636;2022-10-22T05:53:55;13.90;99.90
21031;DHT22;61072;47.808;7.636;2022-10-22T05:56:23;13.90;99.90
21031;DHT22;61072;47.808;7.636;2022-10-22T05:58:50;13.90;99.90
21031;DHT22;61072;47.808;7.636;2022-10-22T06:01:19;13.90;99.90
21031;DHT22;61072;47.808;7.636;2022-10-22T06:03:47;13.80;99.90
21031;DHT22;61072;47.808;7.636;2022-10-22T06:08:48;13.80;99.90
21031;DHT22;61072;47.808;7.636;2022-10-22T06:11:16;13.80;99.90
21031;DHT22;61072;47.808;7.636;2022-10-22T06:13:44;13.80;99.90
21031;DHT22;61072;47.808;7.636;2022-10-22T06:16:12;13.80;99.90
21031;DHT22;61072;47.808;7.636;2022-10-22T06:18:39;13.70;99.90
21031;DHT22;61072;47.808;7.636;2022-10-22T06:21:08;13.60;99.90
21031;DHT22;61072;47.808;7.636;2022-10-22T06:23:36;13.60;99.90
21031;DHT22;61072;47.808;7.636;2022-10-22T06:26:04;13.60;99.90
21031;DHT22;61072;47.808;7.636;2022-10-22T06:28:31;13.60;99.90
21031;DHT22;61072;47.808;7.636;2022-10-22T06:30:58;13.60;99.90
21031;DHT22;61072;47.808;7.636;2022-10-22T06:33:27;13.60;99.90
21031;DHT22;61072;47.808;7.636;2022-10-22T06:35:54;13.60;99.90
21031;DHT22;61072;47.808;7.636;2022-10-22T06:38:20;13.60;99.90
21031;DHT22;61072;47.808;7.636;2022-10-22T06:40:47;13.60;99.90
21031;DHT22;61072;47.808;7.636;2022-10-22T06:43:14;13.60;99.90
21031;DHT22;61072;47.808;7.636;2022-10-22T06:45:41;13.50;99.90
21031;DHT22;61072;47.808;7.636;2022-10-22T06:48:08;13.50;99.90
21031;DHT22;61072;47.808;7.636;2022-10-22T06:50:35;13.50;99.90
21031;DHT22;61072;47.808;7.636;2022-10-22T06:53:02;13.40;99.90
21031;DHT22;61072;47.808;7.636;2022-10-22T06:55:28;13.50;99.90
21031;DHT22;61072;47.808;7.636;2022-10-22T06:57:55;13.50;99.90
21031;DHT22;61072;47.808;7.636;2022-10-22T07:00:22;13.50;99.90
21031;DHT22;61072;47.808;7.636;2022-10-22T07:02:50;13.40;99.90
21031;DHT22;61072;47.808;7.636;2022-10-22T07:05:24;13.40;99.90
21031;DHT22;61072;47.808;7.636;2022-10-22T07:07:51;13.50;99.90
21031;DHT22;61072;47.808;7.636;2022-10-22T07:10:17;13.50;99.90
21031;DHT22;61072;47.808;7.636;2022-10-22T07:12:44;13.50;99.90
21031;DHT22;61072;47.808;7.636;2022-10-22T07:15:11;13.50;99.90
21031;DHT22;61072;47.808;7.636;2022-10-22T07:17:37;13.50;99.90
21031;DHT22;61072;47.808;7.636;2022-10-22T07:20:05;13.60;99.90
21031;DHT22;61072;47.808;7.636;2022-10-22T07:22:32;13.60;99.90
21031;DHT22;61072;47.808;7.636;2022-10-22T07:24:59;13.70;99.90
21031;DHT22;61072;47.808;7.636;2022-10-22T07:27:32;13.70;99.90
21031;DHT22;61072;47.808;7.636;2022-10-22T07:29:59;13.70;99.90
21031;DHT22;61072;47.808;7.636;2022-10-22T07:32:27;13.70;99.90
21031;DHT22;61072;47.808;7.636;2022-10-22T07:34:53;13.70;99.90
21031;DHT22;61072;47.808;7.636;2022-10-22T07:37:20;13.70;99.90
21031;DHT22;61072;47.808;7.636;2022-10-22T07:39:48;13.70;99.90
21031;DHT22;61072;47.808;7.636;2022-10-22T07:42:15;13.70;99.90
21031;DHT22;61072;47.808;7.636;2022-10-22T07:44:42;13.70;99.90
21031;DHT22;61072;47.808;7.636;2022-10-22T07:47:08;13.70;99.90
21031;DHT22;61072;47.808;7.636;2022-10-22T07:49:35;13.80;99.90
21031;DHT22;61072;47.808;7.636;2022-10-22T07:52:02;13.80;99.90
21031;DHT22;61072;47.808;7.636;2022-10-22T07:54:28;13.80;99.90
21031;DHT22;61072;47.808;7.636;2022-10-22T07:56:55;13.80;99.90
21031;DHT22;61072;47.808;7.636;2022-10-22T07:59:22;13.80;99.90
21031;DHT22;61072;47.808;7.636;2022-10-22T08:01:48;13.80;99.90
21031;DHT22;61072;47.808;7.636;2022-10-22T08:04:15;13.90;99.90
21031;DHT22;61072;47.808;7.636;2022-10-22T08:06:42;13.90;99.90
21031;DHT22;61072;47.808;7.636;2022-10-22T08:09:12;13.90;99.90
21031;DHT22;61072;47.808;7.636;2022-10-22T08:11:39;13.90;99.90
21031;DHT22;61072;47.808;7.636;2022-10-22T08:14:06;13.90;99.90
21031;DHT22;61072;47.808;7.636;2022-10-22T08:16:33;14.10;99.90
21031;DHT22;61072;47.808;7.636;2022-10-22T08:18:59;14.00;99.90
21031;DHT22;61072;47.808;7.636;2022-10-22T08:21:26;14.10;99.90
21031;DHT22;61072;47.808;7.636;2022-10-22T08:23:53;14.10;99.90
21031;DHT22;61072;47.808;7.636;2022-10-22T08:26:19;14.10;99.90
21031;DHT22;61072;47.808;7.636;2022-10-22T08:28:46;14.20;99.90
21031;DHT22;61072;47.808;7.636;2022-10-22T08:31:13;14.30;99.90
21031;DHT22;61072;47.808;7.636;2022-10-22T08:33:40;14.30;99.90
21031;DHT22;61072;47.808;7.636;2022-10-22T08:36:08;14.40;99.90
21031;DHT22;61072;47.808;7.636;2022-10-22T08:38:34;14.40;99.90
21031;DHT22;61072;47.808;7.636;2022-10-22T08:41:19;14.40;99.90
21031;DHT22;61072;47.808;7.636;2022-10-22T08:49:27;14.60;99.90
21031;DHT22;61072;47.808;7.636;2022-10-22T08:51:56;14.70;99.90
21031;DHT22;61072;47.808;7.636;2022-10-22T08:57:14;14.80;99.90
21031;DHT22;61072;47.808;7.636;2022-10-22T08:59:56;14.90;99.90
21031;DHT22;61072;47.808;7.636;2022-10-22T09:08:34;15.10;99.90
21031;DHT22;61072;47.808;7.636;2022-10-22T09:13:40;15.20;99.90
21031;DHT22;61072;47.808;7.636;2022-10-22T09:16:14;15.30;99.90
21031;DHT22;61072;47.808;7.636;2022-10-22T09:24:02;15.40;99.90
21031;DHT22;61072;47.808;7.636;2022-10-22T09:26:33;15.60;99.90
21031;DHT22;61072;47.808;7.636;2022-10-22T09:29:01;15.60;99.90
21031;DHT22;61072;47.808;7.636;2022-10-22T09:31:30;15.60;99.90
21031;DHT22;61072;47.808;7.636;2022-10-22T09:33:58;15.70;99.90
21031;DHT22;61072;47.808;7.636;2022-10-22T09:36:27;15.70;99.90
21031;DHT22;61072;47.808;7.636;2022-10-22T09:38:54;15.80;99.90
21031;DHT22;61072;47.808;7.636;2022-10-22T09:41:26;15.80;99.90
21031;DHT22;61072;47.808;7.636;2022-10-22T09:43:55;15.90;99.90
21031;DHT22;61072;47.808;7.636;2022-10-22T09:46:26;15.90;99.90
21031;DHT22;61072;47.808;7.636;2022-10-22T09:49:03;16.00;99.90
21031;DHT22;61072;47.808;7.636;2022-10-22T09:54:11;16.10;99.90
21031;DHT22;61072;47.808;7.636;2022-10-22T09:56:39;16.20;99.90
21031;DHT22;61072;47.808;7.636;2022-10-22T09:59:15;16.20;99.90
21031;DHT22;61072;47.808;7.636;2022-10-22T10:01:42;16.30;99.90
21031;DHT22;61072;47.808;7.636;2022-10-22T10:04:13;16.40;99.90
21031;DHT22;61072;47.808;7.636;2022-10-22T10:06:42;16.60;99.90
21031;DHT22;61072;47.808;7.636;2022-10-22T10:09:15;16.70;99.90
21031;DHT22;61072;47.808;7.636;2022-10-22T10:14:36;16.80;99.90
21031;DHT22;61072;47.808;7.636;2022-10-22T10:19:59;16.80;99.90
21031;DHT22;61072;47.808;7.636;2022-10-22T10:25:47;16.90;99.90
21031;DHT22;61072;47.808;7.636;2022-10-22T10:33:55;17.00;99.90
21031;DHT22;61072;47.808;7.636;2022-10-22T10:36:38;17.00;99.90
21031;DHT22;61072;47.808;7.636;2022-10-22T10:39:14;17.10;99.90
21031;DHT22;61072;47.808;7.636;2022-10-22T10:44:34;17.20;99.90
21031;DHT22;61072;47.808;7.636;2022-10-22T10:49:32;17.30;99.90
21031;DHT22;61072;47.808;7.636;2022-10-22T10:52:20;17.30;99.90
21031;DHT22;61072;47.808;7.636;2022-10-22T10:57:49;17.50;99.90
21031;DHT22;61072;47.808;7.636;2022-10-22T11:00:21;17.50;99.90
21031;DHT22;61072;47.808;7.636;2022-10-22T11:15:54;18.00;99.90
21031;DHT22;61072;47.808;7.636;2022-10-22T11:18:37;18.00;99.90
21031;DHT22;61072;47.808;7.636;2022-10-22T11:21:28;18.10;99.90
21031;DHT22;61072;47.808;7.636;2022-10-22T11:24:11;18.20;99.90
21031;DHT22;61072;47.808;7.636;2022-10-22T11:26:53;18.30;99.90
21031;DHT22;61072;47.808;7.636;2022-10-22T11:29:29;18.30;99.90
21031;DHT22;61072;47.808;7.636;2022-10-22T11:31:59;18.40;99.90
21031;DHT22;61072;47.808;7.636;2022-10-22T11:34:34;18.40;99.90
21031;DHT22;61072;47.808;7.636;2022-10-22T11:37:04;18.30;99.90
21031;DHT22;61072;47.808;7.636;2022-10-22T11:39:38;18.30;99.90
21031;DHT22;61072;47.808;7.636;2022-10-22T11:42:10;18.20;99.90
21031;DHT22;61072;47.808;7.636;2022-10-22T11:44:48;18.20;99.90
21031;DHT22;61072;47.808;7.636;2022-10-22T11:47:24;18.20;99.90
21031;DHT22;61072;47.808;7.636;2022-10-22T11:49:57;18.20;99.90
21031;DHT22;61072;47.808;7.636;2022-10-22T11:55:01;18.20;99.90
21031;DHT22;61072;47.808;7.636;2022-10-22T11:57:37;18.30;99.90
21031;DHT22;61072;47.808;7.636;2022-10-22T12:00:32;18.20;99.90
21031;DHT22;61072;47.808;7.636;2022-10-22T12:03:03;18.20;99.90
21031;DHT22;61072;47.808;7.636;2022-10-22T12:05:40;18.30;99.90
21031;DHT22;61072;47.808;7.636;2022-10-22T12:14:25;18.20;99.90
21031;DHT22;61072;47.808;7.636;2022-10-22T12:19:36;18.20;99.90
21031;DHT22;61072;47.808;7.636;2022-10-22T12:22:16;18.20;99.90
21031;DHT22;61072;47.808;7.636;2022-10-22T12:24:46;18.20;99.90
21031;DHT22;61072;47.808;7.636;2022-10-22T12:27:20;18.20;99.90
21031;DHT22;61072;47.808;7.636;2022-10-22T12:29:59;18.20;99.90
21031;DHT22;61072;47.808;7.636;2022-10-22T12:32:37;18.20;99.90
21031;DHT22;61072;47.808;7.636;2022-10-22T12:35:15;18.20;99.90
21031;DHT22;61072;47.808;7.636;2022-10-22T12:37:42;18.20;99.90
21031;DHT22;61072;47.808;7.636;2022-10-22T12:40:33;18.20;99.90
21031;DHT22;61072;47.808;7.636;2022-10-22T12:43:06;18.30;99.90
21031;DHT22;61072;47.808;7.636;2022-10-22T12:45:44;18.30;99.90
21031;DHT22;61072;47.808;7.636;2022-10-22T12:48:19;18.30;99.90
21031;DHT22;61072;47.808;7.636;2022-10-22T12:50:53;18.40;99.90
21031;DHT22;61072;47.808;7.636;2022-10-22T12:53:31;18.40;99.90
21031;DHT22;61072;47.808;7.636;2022-10-22T12:56:05;18.40;99.90
21031;DHT22;61072;47.808;7.636;2022-10-22T12:58:37;18.40;99.90
21031;DHT22;61072;47.808;7.636;2022-10-22T13:01:05;18.50;99.90
21031;DHT22;61072;47.808;7.636;2022-10-22T13:03:39;18.50;99.90
21031;DHT22;61072;47.808;7.636;2022-10-22T13:08:39;18.50;99.90
21031;DHT22;61072;47.808;7.636;2022-10-22T13:11:08;18.50;99.90
21031;DHT22;61072;47.808;7.636;2022-10-22T13:16:19;18.50;99.90
21031;DHT22;61072;47.808;7.636;2022-10-22T13:18:47;18.50;99.90
21031;DHT22;61072;47.808;7.636;2022-10-22T13:21:23;18.50;99.90
21031;DHT22;61072;47.808;7.636;2022-10-22T13:23:54;18.60;99.90
21031;DHT22;61072;47.808;7.636;2022-10-22T13:26:21;18.70;99.90
21031;DHT22;61072;47.808;7.636;2022-10-22T13:28:54;18.60;99.90
21031;DHT22;61072;47.808;7.636;2022-10-22T13:31:27;18.60;99.90
21031;DHT22;61072;47.808;7.636;2022-10-22T13:33:59;18.70;99.90
21031;DHT22;61072;47.808;7.636;2022-10-22T13:36:32;18.60;99.90
21031;DHT22;61072;47.808;7.636;2022-10-22T13:38:58;18.70;99.90
21031;DHT22;61072;47.808;7.636;2022-10-22T13:41:27;18.70;99.90
21031;DHT22;61072;47.808;7.636;2022-10-22T13:43:56;18.70;99.90
21031;DHT22;61072;47.808;7.636;2022-10-22T13:46:24;18.70;99.90
21031;DHT22;61072;47.808;7.636;2022-10-22T13:48:54;18.70;99.90
21031;DHT22;61072;47.808;7.636;2022-10-22T13:51:30;18.60;99.90
21031;DHT22;61072;47.808;7.636;2022-10-22T13:53:58;18.70;99.90
21031;DHT22;61072;47.808;7.636;2022-10-22T13:56:24;18.60;99.90
21031;DHT22;61072;47.808;7.636;2022-10-22T13:58:51;18.60;99.90
21031;DHT22;61072;47.808;7.636;2022-10-22T14:01:25;18.70;99.90
21031;DHT22;61072;47.808;7.636;2022-10-22T14:03:55;18.60;99.90
21031;DHT22;61072;47.808;7.636;2022-10-22T14:06:25;18.60;99.90
21031;DHT22;61072;47.808;7.636;2022-10-22T14:08:57;18.60;99.90
21031;DHT22;61072;47.808;7.636;2022-10-22T14:11:25;18.60;99.90
21031;DHT22;61072;47.808;7.636;2022-10-22T14:13:56;18.70;99.90
21031;DHT22;61072;47.808;7.636;2022-10-22T14:16:26;18.60;99.90
21031;DHT22;61072;47.808;7.636;2022-10-22T14:18:54;18.60;99.90
21031;DHT22;61072;47.808;7.636;2022-10-22T14:21:21;18.50;99.90
21031;DHT22;61072;47.808;7.636;2022-10-22T14:23:48;18.50;99.90
21031;DHT22;61072;47.808;7.636;2022-10-22T14:26:26;18.50;99.90
21031;DHT22;61072;47.808;7.636;2022-10-22T14:28:55;18.50;99.90
21031;DHT22;61072;47.808;7.636;2022-10-22T14:31:41;18.50;99.90
21031;DHT22;61072;47.808;7.636;2022-10-22T14:34:12;18.50;99.90
21031;DHT22;61072;47.808;7.636;2022-10-22T14:36:39;18.50;99.90
21031;DHT22;61072;47.808;7.636;2022-10-22T14:39:09;18.50;99.90
21031;DHT22;61072;47.808;7.636;2022-10-22T14:41:36;18.50;99.90
21031;DHT22;61072;47.808;7.636;2022-10-22T14:44:03;18.50;99.90
21031;DHT22;61072;47.808;7.636;2022-10-22T14:46:29;18.50;99.90
21031;DHT22;61072;47.808;7.636;2022-10-22T14:48:56;18.50;99.90
21031;DHT22;61072;47.808;7.636;2022-10-22T14:51:23;18.50;99.90
21031;DHT22;61072;47.808;7.636;2022-10-22T14:53:50;18.40;99.90
21031;DHT22;61072;47.808;7.636;2022-10-22T14:56:18;18.40;99.90
21031;DHT22;61072;47.808;7.636;2022-10-22T14:58:48;18.40;99.90
21031;DHT22;61072;47.808;7.636;2022-10-22T15:01:15;18.40;99.90
21031;DHT22;61072;47.808;7.636;2022-10-22T15:03:42;18.40;99.90
21031;DHT22;61072;47.808;7.636;2022-10-22T15:06:09;18.40;99.90
21031;DHT22;61072;47.808;7.636;2022-10-22T15:08:36;18.40;99.90
21031;DHT22;61072;47.808;7.636;2022-10-22T15:11:06;18.40;99.90
21031;DHT22;61072;47.808;7.636;2022-10-22T15:13:33;18.40;99.90
21031;DHT22;61072;47.808;7.636;2022-10-22T15:16:04;18.30;99.90
21031;DHT22;61072;47.808;7.636;2022-10-22T15:18:31;18.30;99.90
21031;DHT22;61072;47.808;7.636;2022-10-22T15:21:00;18.30;99.90
21031;DHT22;61072;47.808;7.636;2022-10-22T15:23:28;18.30;99.90
21031;DHT22;61072;47.808;7.636;2022-10-22T15:25:54;18.30;99.90
21031;DHT22;61072;47.808;7.636;2022-10-22T15:28:22;18.20;99.90
21031;DHT22;61072;47.808;7.636;2022-10-22T15:30:54;18.20;99.90
21031;DHT22;61072;47.808;7.636;2022-10-22T15:33:21;18.10;99.90
21031;DHT22;61072;47.808;7.636;2022-10-22T15:35:48;18.10;99.90
21031;DHT22;61072;47.808;7.636;2022-10-22T15:38:15;18.10;99.90
21031;DHT22;61072;47.808;7.636;2022-10-22T15:40:42;18.00;99.90
21031;DHT22;61072;47.808;7.636;2022-10-22T15:43:09;18.00;99.90
21031;DHT22;61072;47.808;7.636;2022-10-22T15:45:36;17.90;99.90
21031;DHT22;61072;47.808;7.636;2022-10-22T15:48:03;17.90;99.90
21031;DHT22;61072;47.808;7.636;2022-10-22T15:50:30;17.90;99.90
21031;DHT22;61072;47.808;7.636;2022-10-22T15:52:57;17.80;99.90
21031;DHT22;61072;47.808;7.636;2022-10-22T15:55:24;17.80;99.90
21031;DHT22;61072;47.808;7.636;2022-10-22T15:57:53;17.70;99.90
21031;DHT22;61072;47.808;7.636;2022-10-22T16:00:23;17.70;99.90
21031;DHT22;61072;47.808;7.636;2022-10-22T16:02:52;17.60;99.90
21031;DHT22;61072;47.808;7.636;2022-10-22T16:05:19;17.50;99.90
21031;DHT22;61072;47.808;7.636;2022-10-22T16:07:46;17.50;99.90
21031;DHT22;61072;47.808;7.636;2022-10-22T16:10:12;17.40;99.90
21031;DHT22;61072;47.808;7.636;2022-10-22T16:12:39;17.30;99.90
21031;DHT22;61072;47.808;7.636;2022-10-22T16:15:08;17.20;99.90
21031;DHT22;61072;47.808;7.636;2022-10-22T16:17:35;17.20;99.90
21031;DHT22;61072;47.808;7.636;2022-10-22T16:20:01;17.10;99.90
21031;DHT22;61072;47.808;7.636;2022-10-22T16:22:28;17.10;99.90
21031;DHT22;61072;47.808;7.636;2022-10-22T16:24:55;17.00;99.90
21031;DHT22;61072;47.808;7.636;2022-10-22T16:27:21;17.00;99.90
21031;DHT22;61072;47.808;7.636;2022-10-22T16:29:48;16.90;99.90
21031;DHT22;61072;47.808;7.636;2022-10-22T16:32:15;16.90;99.90
21031;DHT22;61072;47.808;7.636;2022-10-22T16:34:42;16.80;99.90
21031;DHT22;61072;47.808;7.636;2022-10-22T16:37:09;16.80;99.90
21031;DHT22;61072;47.808;7.636;2022-10-22T16:39:36;16.70;99.90
21031;DHT22;61072;47.808;7.636;2022-10-22T16:42:02;16.70;99.90
21031;DHT22;61072;47.808;7.636;2022-10-22T16:44:29;16.60;99.90
21031;DHT22;61072;47.808;7.636;2022-10-22T16:46:56;16.60;99.90
21031;DHT22;61072;47.808;7.636;2022-10-22T16:49:23;16.50;99.90
21031;DHT22;61072;47.808;7.636;2022-10-22T16:51:49;16.50;99.90
21031;DHT22;61072;47.808;7.636;2022-10-22T16:54:16;16.40;99.90
21031;DHT22;61072;47.808;7.636;2022-10-22T16:56:43;16.40;99.90
21031;DHT22;61072;47.808;7.636;2022-10-22T16:59:09;16.30;99.90
21031;DHT22;61072;47.808;7.636;2022-10-22T17:01:36;16.20;99.90
21031;DHT22;61072;47.808;7.636;2022-10-22T17:04:06;16.20;99.90
21031;DHT22;61072;47.808;7.636;2022-10-22T17:06:33;16.20;99.90
21031;DHT22;61072;47.808;7.636;2022-10-22T17:09:00;16.10;99.90
21031;DHT22;61072;47.808;7.636;2022-10-22T17:11:27;16.10;99.90
21031;DHT22;61072;47.808;7.636;2022-10-22T17:14:00;16.10;99.90
21031;DHT22;61072;47.808;7.636;2022-10-22T17:16:27;16.00;99.90
21031;DHT22;61072;47.808;7.636;2022-10-22T17:18:55;16.00;99.90
21031;DHT22;61072;47.808;7.636;2022-10-22T17:21:23;15.90;99.90
21031;DHT22;61072;47.808;7.636;2022-10-22T17:23:54;15.90;99.90
21031;DHT22;61072;47.808;7.636;2022-10-22T17:26:22;15.80;99.90
21031;DHT22;61072;47.808;7.636;2022-10-22T17:28:52;15.80;99.90
21031;DHT22;61072;47.808;7.636;2022-10-22T17:31:23;15.70;99.90
21031;DHT22;61072;47.808;7.636;2022-10-22T17:33:52;15.80;99.90
21031;DHT22;61072;47.808;7.636;2022-10-22T17:36:20;15.80;99.90
21031;DHT22;61072;47.808;7.636;2022-10-22T17:38:49;15.70;99.90
21031;DHT22;61072;47.808;7.636;2022-10-22T17:41:19;15.70;99.90
21031;DHT22;61072;47.808;7.636;2022-10-22T17:43:46;15.70;99.90
21031;DHT22;61072;47.808;7.636;2022-10-22T17:46:19;15.70;99.90
21031;DHT22;61072;47.808;7.636;2022-10-22T17:48:54;15.70;99.90
21031;DHT22;61072;47.808;7.636;2022-10-22T17:51:22;15.60;99.90
21031;DHT22;61072;47.808;7.636;2022-10-22T17:53:49;15.60;99.90
21031;DHT22;61072;47.808;7.636;2022-10-22T17:56:34;15.60;99.90
21031;DHT22;61072;47.808;7.636;2022-10-22T17:59:02;15.70;99.90
21031;DHT22;61072;47.808;7.636;2022-10-22T18:01:32;15.60;99.90
21031;DHT22;61072;47.808;7.636;2022-10-22T18:04:02;15.60;99.90
21031;DHT22;61072;47.808;7.636;2022-10-22T18:06:29;15.60;99.90
21031;DHT22;61072;47.808;7.636;2022-10-22T18:08:56;15.50;99.90
21031;DHT22;61072;47.808;7.636;2022-10-22T18:11:25;15.50;99.90
21031;DHT22;61072;47.808;7.636;2022-10-22T18:13:54;15.50;99.90
21031;DHT22;61072;47.808;7.636;2022-10-22T18:16:21;15.40;99.90
21031;DHT22;61072;47.808;7.636;2022-10-22T18:18:50;15.40;99.90
21031;DHT22;61072;47.808;7.636;2022-10-22T18:21:17;15.40;99.90
21031;DHT22;61072;47.808;7.636;2022-10-22T18:23:45;15.40;99.90
21031;DHT22;61072;47.808;7.636;2022-10-22T18:26:12;15.40;99.90
21031;DHT22;61072;47.808;7.636;2022-10-22T18:28:39;15.40;99.90
21031;DHT22;61072;47.808;7.636;2022-10-22T18:31:09;15.40;99.90
21031;DHT22;61072;47.808;7.636;2022-10-22T18:33:36;15.40;99.90
21031;DHT22;61072;47.808;7.636;2022-10-22T18:36:10;15.30;99.90
21031;DHT22;61072;47.808;7.636;2022-10-22T18:38:37;15.30;99.90
21031;DHT22;61072;47.808;7.636;2022-10-22T18:41:08;15.30;99.90
21031;DHT22;61072;47.808;7.636;2022-10-22T18:43:35;15.30;99.90
21031;DHT22;61072;47.808;7.636;2022-10-22T18:46:05;15.30;99.90
21031;DHT22;61072;47.808;7.636;2022-10-22T18:48:36;15.30;99.90
21031;DHT22;61072;47.808;7.636;2022-10-22T18:51:07;15.30;99.90
21031;DHT22;61072;47.808;7.636;2022-10-22T18:53:35;15.20;99.90
21031;DHT22;61072;47.808;7.636;2022-10-22T18:56:07;15.20;99.90
21031;DHT22;61072;47.808;7.636;2022-10-22T18:58:42;15.10;99.90
21031;DHT22;61072;47.808;7.636;2022-10-22T19:01:22;15.10;99.90
21031;DHT22;61072;47.808;7.636;2022-10-22T19:03:49;15.10;99.90
21031;DHT22;61072;47.808;7.636;2022-10-22T19:06:23;15.10;99.90
21031;DHT22;61072;47.808;7.636;2022-10-22T19:08:50;15.10;99.90
21031;DHT22;61072;47.808;7.636;2022-10-22T19:11:17;15.00;99.90
21031;DHT22;61072;47.808;7.636;2022-10-22T19:13:44;15.00;99.90
21031;DHT22;61072;47.808;7.636;2022-10-22T19:16:15;15.00;99.90
21031;DHT22;61072;47.808;7.636;2022-10-22T19:18:43;15.00;99.90
21031;DHT22;61072;47.808;7.636;2022-10-22T19:21:10;15.00;99.90
21031;DHT22;61072;47.808;7.636;2022-10-22T19:23:37;14.90;99.90
21031;DHT22;61072;47.808;7.636;2022-10-22T19:26:10;14.90;99.90
21031;DHT22;61072;47.808;7.636;2022-10-22T19:28:38;14.90;99.90
21031;DHT22;61072;47.808;7.636;2022-10-22T19:31:06;14.90;99.90
21031;DHT22;61072;47.808;7.636;2022-10-22T19:33:34;14.90;99.90
21031;DHT22;61072;47.808;7.636;2022-10-22T19:36:12;14.80;99.90
21031;DHT22;61072;47.808;7.636;2022-10-22T19:38:41;14.80;99.90
21031;DHT22;61072;47.808;7.636;2022-10-22T19:41:13;14.80;99.90
21031;DHT22;61072;47.808;7.636;2022-10-22T19:43:41;14.90;99.90
21031;DHT22;61072;47.808;7.636;2022-10-22T19:46:09;14.80;99.90
21031;DHT22;61072;47.808;7.636;2022-10-22T19:48:36;14.80;99.90
21031;DHT22;61072;47.808;7.636;2022-10-22T19:51:08;14.80;99.90
21031;DHT22;61072;47.808;7.636;2022-10-22T19:53:37;14.70;99.90
21031;DHT22;61072;47.808;7.636;2022-10-22T19:56:06;14.80;99.90
21031;DHT22;61072;47.808;7.636;2022-10-22T19:58:34;14.70;99.90
21031;DHT22;61072;47.808;7.636;2022-10-22T20:01:08;14.70;99.90
21031;DHT22;61072;47.808;7.636;2022-10-22T20:03:36;14.70;99.90
21031;DHT22;61072;47.808;7.636;2022-10-22T20:06:05;14.70;99.90
21031;DHT22;61072;47.808;7.636;2022-10-22T20:08:34;14.70;99.90
21031;DHT22;61072;47.808;7.636;2022-10-22T20:11:14;14.60;99.90
21031;DHT22;61072;47.808;7.636;2022-10-22T20:13:41;14.60;99.90
21031;DHT22;61072;47.808;7.636;2022-10-22T20:16:14;14.60;99.90
21031;DHT22;61072;47.808;7.636;2022-10-22T20:18:42;14.50;99.90
21031;DHT22;61072;47.808;7.636;2022-10-22T20:21:12;14.50;99.90
21031;DHT22;61072;47.808;7.636;2022-10-22T20:23:41;14.50;99.90
21031;DHT22;61072;47.808;7.636;2022-10-22T20:26:08;14.50;99.90
21031;DHT22;61072;47.808;7.636;2022-10-22T20:28:35;14.50;99.90
21031;DHT22;61072;47.808;7.636;2022-10-22T20:31:08;14.40;99.90
21031;DHT22;61072;47.808;7.636;2022-10-22T20:33:35;14.40;99.90
21031;DHT22;61072;47.808;7.636;2022-10-22T20:36:05;14.40;99.90
21031;DHT22;61072;47.808;7.636;2022-10-22T20:38:32;14.30;99.90
21031;DHT22;61072;47.808;7.636;2022-10-22T20:41:08;14.30;99.90
21031;DHT22;61072;47.808;7.636;2022-10-22T20:43:35;14.30;99.90